New Salem, Massachusetts
Current Conditions -  °F | °C
As of 11:52 PM on Friday 31 Oct 2014 (Local Time) from KORE Reporting Station
Overcast Overcast  
Wind Chill: 45°   Ceiling: 4900
Heat Index: 45°   Visibility: 10mi
Dew Point: 35°   Wind: 3mph
Humidity: 68%   Direction: 360°N
Pressure: 29.96"   Gusts: NA
Location:  42.5°N, 72.33°W
Report Text: KORE 010352Z AUTO 36003KT 10SM OVC049 07/02 A2996 RMK AO2 SLP150 T00720017
Loading
Personal Weather Stations






























Interactive Weather Map
Tropical Storm Tracking
New forecast layout! Learn more

10-Day Weather Forecast

Advertisements
Track Severe Weather on mobile